Time;durP1;ratioP1;P1;durP2;ratioP2;P2;SDS_P1;SDS_P2;PMS_P1;PMS_P2;Temp;Humidity;BMP_temperature;BMP_pressure;BME280_temperature;BME280_humidity;BME280_pressure;Samples;Min_cycle;Max_cycle;Signal;HPM_P1;HPM_P2
2022/11/15 00:00:03;;;;;;;0.20;0.20;;;10.80;99.90;;;;;;4920528;29;20028;-77
2022/11/15 00:02:34;;;;;;;0.10;0.10;;;11.00;99.90;;;;;;4936712;28;20032;-77
2022/11/15 00:05:10;;;;;;;0.10;0.10;;;10.90;99.90;;;;;;4937953;29;20031;-77
2022/11/15 00:07:36;;;;;;;0.10;0.10;;;11.60;99.90;;;;;;4954802;28;20019;-77
2022/11/15 00:10:02;;;;;;;0.20;0.20;;;10.90;99.90;;;;;;4953670;29;20035;-77
2022/11/15 00:12:28;;;;;;;0.40;0.40;;;11.00;99.90;;;;;;4955467;28;20228;-77
2022/11/15 00:14:59;;;;;;;4.50;4.22;;;11.00;99.90;;;;;;4939966;28;20059;-77
2022/11/15 00:17:25;;;;;;;0.45;0.45;;;11.00;99.90;;;;;;4938590;29;20043;-78
2022/11/15 00:20:13;;;;;;;0.20;0.20;;;11.00;99.90;;;;;;4954365;29;20030;-77
2022/11/15 00:22:41;;;;;;;1.10;1.10;;;11.10;99.90;;;;;;4936929;29;20048;-76
2022/11/15 00:25:07;;;;;;;0.28;0.28;;;11.10;99.90;;;;;;4955053;28;20274;-77
2022/11/15 00:27:33;;;;;;;3.33;3.13;;;11.10;99.90;;;;;;4954279;28;20039;-77
2022/11/15 00:29:58;;;;;;;0.20;0.20;;;11.20;99.90;;;;;;4935980;29;20095;-78
2022/11/15 00:32:33;;;;;;;2.17;2.10;;;11.20;99.90;;;;;;4934680;29;20030;-77
2022/11/15 00:34:59;;;;;;;2.22;2.13;;;11.20;99.90;;;;;;4914161;29;20059;-77
2022/11/15 00:37:25;;;;;;;3.15;3.05;;;11.20;99.90;;;;;;4913870;29;20035;-78
2022/11/15 00:39:50;;;;;;;6.82;6.63;;;11.20;99.90;;;;;;4930487;29;20027;-78
2022/11/15 00:42:16;;;;;;;4.95;4.05;;;11.20;99.90;;;;;;4928972;29;20024;-77
2022/11/15 00:44:42;;;;;;;0.30;0.30;;;11.20;99.90;;;;;;4929747;29;20036;-78
2022/11/15 00:47:07;;;;;;;0.50;0.50;;;11.20;99.90;;;;;;4928561;29;20038;-77
2022/11/15 00:49:33;;;;;;;5.60;5.30;;;11.20;99.90;;;;;;4953841;28;20039;-77
2022/11/15 00:52:02;;;;;;;0.20;0.20;;;11.20;99.90;;;;;;4953540;29;20011;-77
2022/11/15 00:54:27;;;;;;;0.20;0.20;;;11.20;99.90;;;;;;4936749;29;20043;-78
2022/11/15 00:56:59;;;;;;;4.88;4.47;;;11.20;99.90;;;;;;4953308;28;20019;-77
2022/11/15 00:59:30;;;;;;;8.15;7.50;;;11.20;99.90;;;;;;4937409;29;20079;-78
2022/11/15 01:01:56;;;;;;;1.17;1.17;;;11.20;99.90;;;;;;4943611;29;20023;-79
2022/11/15 01:04:22;;;;;;;18.23;16.25;;;11.20;99.90;;;;;;4918190;29;20479;-77
2022/11/15 01:06:53;;;;;;;0.20;0.20;;;11.10;99.90;;;;;;4936598;29;20086;-77
2022/11/15 01:09:19;;;;;;;3.95;3.75;;;11.10;99.90;;;;;;4936469;29;20052;-77
2022/11/15 01:11:53;;;;;;;0.77;0.77;;;11.10;99.90;;;;;;4936952;29;20199;-77
2022/11/15 01:14:19;;;;;;;0.63;0.63;;;11.00;99.90;;;;;;4937930;29;20044;-77
2022/11/15 01:16:45;;;;;;;0.20;0.20;;;11.00;99.90;;;;;;4947241;29;20118;-78
2022/11/15 01:19:27;;;;;;;0.20;0.20;;;11.00;99.90;;;;;;4956026;28;20012;-78
2022/11/15 01:21:53;;;;;;;0.38;0.38;;;11.00;99.90;;;;;;4954353;28;20266;-77
2022/11/15 01:24:19;;;;;;;0.95;0.95;;;11.00;99.90;;;;;;4938222;29;20012;-77
2022/11/15 01:26:45;;;;;;;0.32;0.32;;;11.00;99.90;;;;;;4953710;29;20012;-77
2022/11/15 01:29:14;;;;;;;4.65;4.40;;;11.00;99.90;;;;;;4952984;28;20046;-77
2022/11/15 01:32:05;;;;;;;0.40;0.40;;;11.00;99.90;;;;;;4952057;28;20464;-77
2022/11/15 01:34:32;;;;;;;0.50;0.50;;;11.00;99.90;;;;;;4952720;29;20059;-77
2022/11/15 01:37:05;;;;;;;16.73;14.93;;;10.90;99.90;;;;;;4953700;28;20091;-80
2022/11/15 01:39:36;;;;;;;5.97;5.53;;;10.90;99.90;;;;;;4936866;29;20027;-78
2022/11/15 01:42:03;;;;;;;1.00;1.00;;;11.50;99.90;;;;;;4952725;28;20067;-77
2022/11/15 01:44:50;;;;;;;5.32;5.10;;;10.90;99.90;;;;;;4951515;28;20020;-77
2022/11/15 01:47:25;;;;;;;0.90;0.90;;;10.90;99.90;;;;;;4926475;29;20549;-77
2022/11/15 01:50:13;;;;;;;0.40;0.40;;;10.90;99.90;;;;;;4930848;29;20434;-77
2022/11/15 01:52:40;;;;;;;28.30;18.60;;;10.80;99.90;;;;;;4913754;29;20024;-77
2022/11/15 01:55:27;;;;;;;3.67;3.53;;;10.80;99.90;;;;;;4913858;29;20031;-78
2022/11/15 01:58:04;;;;;;;1.05;1.05;;;10.80;99.90;;;;;;4928776;29;20027;-77
2022/11/15 02:00:31;;;;;;;0.82;0.82;;;10.80;99.90;;;;;;4930279;29;20270;-78
2022/11/15 02:02:56;;;;;;;6.93;5.35;;;10.80;99.90;;;;;;4930354;29;20020;-78
2022/11/15 02:05:22;;;;;;;1.67;1.60;;;10.80;99.90;;;;;;4928770;29;20036;-78
2022/11/15 02:07:49;;;;;;;4.68;4.32;;;10.70;99.90;;;;;;4929612;29;20107;-77
2022/11/15 02:10:23;;;;;;;2.28;2.17;;;10.70;99.90;;;;;;4912022;29;20024;-77
2022/11/15 02:12:50;;;;;;;8.02;7.18;;;10.70;99.90;;;;;;4912913;29;20028;-77
2022/11/15 02:15:16;;;;;;;1.55;1.48;;;10.70;99.90;;;;;;4930236;29;20054;-77
2022/11/15 02:18:00;;;;;;;0.70;0.70;;;10.60;99.90;;;;;;4912450;29;20642;-77
2022/11/15 02:20:43;;;;;;;1.40;1.40;;;10.50;99.90;;;;;;4927756;29;20074;-78
2022/11/15 02:23:50;;;;;;;1.80;1.73;;;10.50;99.90;;;;;;4926791;29;20039;-77
2022/11/15 02:26:49;;;;;;;0.40;0.40;;;10.40;99.90;;;;;;4911446;29;20036;-77
2022/11/15 02:29:18;;;;;;;0.20;0.20;;;10.40;99.90;;;;;;4928513;29;20028;-77
2022/11/15 02:31:45;;;;;;;4.60;4.40;;;10.40;99.90;;;;;;4931836;29;20051;-77
2022/11/15 02:34:34;;;;;;;2.05;1.98;;;10.40;99.90;;;;;;4954311;29;20014;-77
2022/11/15 02:37:15;;;;;;;0.20;0.20;;;10.40;99.90;;;;;;4951541;29;20031;-78
2022/11/15 02:40:13;;;;;;;1.75;1.75;;;10.30;99.90;;;;;;4952339;23;20924;-77
2022/11/15 02:46:16;;;;;;;0.30;0.30;;;10.30;99.90;;;;;;4992351;28;20107;-77
2022/11/15 02:49:06;;;;;;;0.20;0.20;;;11.40;99.90;;;;;;4969401;28;20054;-77
2022/11/15 02:51:39;;;;;;;0.15;0.15;;;10.40;99.90;;;;;;4970633;28;20058;-77
2022/11/15 02:54:22;;;;;;;3.95;3.72;;;10.20;99.90;;;;;;4961400;23;20114;-77
2022/11/15 02:56:54;;;;;;;1.60;1.55;;;10.10;99.90;;;;;;4953660;28;20026;-77
2022/11/15 02:59:31;;;;;;;0.35;0.35;;;10.30;99.90;;;;;;4970756;28;20031;-78
2022/11/15 03:02:20;;;;;;;0.20;0.20;;;10.20;99.90;;;;;;4973527;28;20007;-77
2022/11/15 03:05:01;;;;;;;2.72;2.63;;;10.20;99.90;;;;;;4991162;28;20035;-77
2022/11/15 03:07:52;;;;;;;0.32;0.32;;;10.30;99.90;;;;;;4975406;28;20007;-77
2022/11/15 03:10:26;;;;;;;0.20;0.20;;;10.30;99.90;;;;;;4991463;28;20095;-77
2022/11/15 03:13:12;;;;;;;;;;;10.30;99.90;;;;;;4976919;28;20110;-77
2022/11/15 03:15:44;;;;;;;0.35;0.35;;;10.30;99.90;;;;;;4991686;28;19910;-78
2022/11/15 03:32:06;;;;;;;4.88;4.60;;;10.40;99.90;;;;;;4963867;28;20315;-78
2022/11/15 03:35:04;;;;;;;0.20;0.20;;;10.40;99.90;;;;;;4975485;28;20007;-78
2022/11/15 03:38:14;;;;;;;0.20;0.20;;;10.40;99.90;;;;;;4991666;28;20034;-78
2022/11/15 03:40:59;;;;;;;13.70;12.43;;;10.40;99.90;;;;;;4914703;29;20632;-78
2022/11/15 03:44:00;;;;;;;6.20;5.88;;;10.40;99.90;;;;;;4932154;29;20033;-77
2022/11/15 03:47:06;;;;;;;12.52;11.90;;;10.40;99.90;;;;;;4932218;29;20044;-79
2022/11/15 03:50:27;;;;;;;0.55;0.55;;;10.50;99.90;;;;;;4916824;29;20008;-78
2022/11/15 03:53:03;;;;;;;1.00;1.00;;;10.60;99.90;;;;;;4930445;28;20056;-77
2022/11/15 03:55:32;;;;;;;0.10;0.10;;;10.30;99.90;;;;;;4963731;23;20013;-78
2022/11/15 03:58:00;;;;;;;0.30;0.30;;;9.70;99.90;;;;;;4974415;28;20031;-78
2022/11/15 04:00:34;;;;;;;0.10;0.10;;;10.30;99.90;;;;;;4989571;28;20046;-77
2022/11/15 04:03:00;;;;;;;0.10;0.10;;;10.30;99.90;;;;;;4973085;28;20015;-77
2022/11/15 04:05:29;;;;;;;0.13;0.13;;;10.30;99.90;;;;;;4973592;28;20010;-77
2022/11/15 04:07:56;;;;;;;0.10;0.10;;;10.30;99.90;;;;;;4999144;23;20546;-77
2022/11/15 04:10:25;;;;;;;0.10;0.10;;;10.30;99.90;;;;;;4993973;28;20003;-78
2022/11/15 04:12:59;;;;;;;0.95;0.95;;;10.40;99.90;;;;;;4995977;28;20034;-77
2022/11/15 04:15:45;;;;;;;0.10;0.10;;;11.30;99.90;;;;;;4995950;28;20043;-78
2022/11/15 04:18:11;;;;;;;0.10;0.10;;;;;;;;;;5002487;23;20066;-78
2022/11/15 04:26:50;;;;;;;0.10;0.10;;;10.50;99.90;;;;;;4994160;28;20544;-77
2022/11/15 04:29:34;;;;;;;0.17;0.17;;;10.30;99.90;;;;;;4972581;28;20027;-78
2022/11/15 04:32:09;;;;;;;0.20;0.20;;;10.30;99.90;;;;;;4972776;28;20083;-77
2022/11/15 04:34:35;;;;;;;0.20;0.20;;;10.30;99.90;;;;;;4952383;29;20035;-77
2022/11/15 04:37:15;;;;;;;0.43;0.43;;;10.20;99.90;;;;;;4934054;29;20043;-78
2022/11/15 04:39:42;;;;;;;5.82;5.53;;;8.90;99.90;;;;;;4940943;29;20020;-78
2022/11/15 04:42:08;;;;;;;7.47;6.97;;;10.10;99.90;;;;;;4957461;29;20035;-78
2022/11/15 04:44:34;;;;;;;17.73;16.27;;;10.00;99.90;;;;;;4958203;29;20087;-78
2022/11/15 04:47:05;;;;;;;1.40;1.35;;;10.00;99.90;;;;;;4957996;29;20047;-78
2022/11/15 04:49:31;;;;;;;0.65;0.65;;;9.90;99.90;;;;;;4949963;29;20023;-78
2022/11/15 04:52:07;;;;;;;0.63;0.63;;;9.90;99.90;;;;;;4948174;29;20472;-77
2022/11/15 04:54:32;;;;;;;5.43;5.15;;;9.90;99.90;;;;;;4947091;29;20082;-78
2022/11/15 04:56:58;;;;;;;2.80;2.70;;;9.90;99.90;;;;;;4946820;29;20019;-78
2022/11/15 04:59:25;;;;;;;0.82;0.82;;;9.90;99.90;;;;;;4945886;29;20023;-78
2022/11/15 05:01:52;;;;;;;1.60;1.55;;;9.80;99.90;;;;;;4943233;23;20054;-77
2022/11/15 05:04:21;;;;;;;0.40;0.40;;;9.80;99.90;;;;;;4951814;28;20437;-78
2022/11/15 05:06:51;;;;;;;1.33;1.33;;;9.80;99.90;;;;;;4968381;28;20336;-77
2022/11/15 05:12:35;;;;;;;0.20;0.20;;;;;;;;;;4894845;29;20157;-80
2022/11/15 05:15:04;;;;;;;3.85;3.70;;;9.70;99.90;;;;;;4890361;29;20254;-78
2022/11/15 05:17:29;;;;;;;0.45;0.45;;;9.80;99.90;;;;;;4890436;29;20480;-77
2022/11/15 05:20:07;;;;;;;0.70;0.70;;;9.80;99.90;;;;;;4917600;29;20084;-77
2022/11/15 05:22:34;;;;;;;5.40;5.20;;;9.80;99.90;;;;;;4912424;29;20052;-77
2022/11/15 05:25:00;;;;;;;2.38;2.28;;;9.70;99.90;;;;;;4910169;29;20032;-77
2022/11/15 05:27:38;;;;;;;1.08;1.00;;;9.60;99.90;;;;;;4946322;23;20277;-77
2022/11/15 05:30:10;;;;;;;0.20;0.20;;;9.50;99.90;;;;;;5023817;23;20053;-77
2022/11/15 05:32:36;;;;;;;0.85;0.85;;;10.00;99.90;;;;;;4982118;28;20014;-77
2022/11/15 05:35:05;;;;;;;0.10;0.10;;;9.50;99.90;;;;;;4961878;28;20047;-77
2022/11/15 05:38:00;;;;;;;12.75;11.52;;;9.70;99.90;;;;;;4961063;29;20728;-77
2022/11/15 05:40:47;;;;;;;1.77;1.67;;;9.40;99.90;;;;;;4927563;29;20036;-77
2022/11/15 05:43:13;;;;;;;0.13;0.13;;;9.50;99.90;;;;;;4993504;23;20244;-77
2022/11/15 05:45:51;;;;;;;0.63;0.63;;;9.80;99.90;;;;;;4991974;28;20051;-76
2022/11/15 05:48:18;;;;;;;0.20;0.20;;;9.30;99.90;;;;;;4985646;28;20031;-77
2022/11/15 05:50:46;;;;;;;4.35;4.15;;;9.40;99.90;;;;;;4986231;28;20098;-77
2022/11/15 05:53:14;;;;;;;2.05;2.05;;;9.40;99.90;;;;;;4985050;28;20026;-77
2022/11/15 05:55:41;;;;;;;3.80;3.63;;;9.30;99.90;;;;;;4966230;28;20027;-77
2022/11/15 05:58:07;;;;;;;7.97;7.53;;;9.20;99.90;;;;;;4970090;28;20124;-76
2022/11/15 06:00:36;;;;;;;0.52;0.52;;;9.30;99.90;;;;;;4986686;28;20046;-77
2022/11/15 06:03:10;;;;;;;0.22;0.22;;;9.30;99.90;;;;;;4972118;28;20027;-77
2022/11/15 06:05:53;;;;;;;0.73;0.73;;;9.20;99.90;;;;;;4972267;28;20015;-77
2022/11/15 06:08:22;;;;;;;0.52;0.52;;;9.20;99.90;;;;;;4993390;28;20083;-81
2022/11/15 06:13:41;;;;;;;0.43;0.43;;;9.10;99.90;;;;;;5073668;23;20050;-77
2022/11/15 06:21:40;;;;;;;43.15;40.08;;;9.20;99.90;;;;;;5127338;23;20039;-77
2022/11/15 07:03:46;;;;;;;0.10;0.10;;;11.10;99.90;;;;;;4950893;28;20078;-77
2022/11/15 07:45:26;;;;;;;0.45;0.45;;;10.60;99.90;;;;;;989481;26;20320;-78
2022/11/15 07:53:34;;;;;;;3.55;3.40;;;10.70;99.90;;;;;;5193423;23;20051;-79
2022/11/15 08:06:27;;;;;;;6.28;5.95;;;10.90;99.90;;;;;;3240077;26;20067;-79
2022/11/15 08:11:29;;;;;;;2.40;2.30;;;11.10;99.90;;;;;;4806418;23;20126;-77
2022/11/15 08:16:30;;;;;;;0.38;0.38;;;11.20;99.90;;;;;;2414851;23;20031;-82
2022/11/15 08:19:16;;;;;;;16.17;9.73;;;11.30;99.90;;;;;;4978858;28;20054;-79
2022/11/15 08:21:45;;;;;;;16.23;15.38;;;11.20;99.90;;;;;;4962788;28;20054;-81
2022/11/15 08:37:27;;;;;;;1.38;1.38;;;12.40;99.90;;;;;;1201834;26;20060;-78
2022/11/15 08:39:54;;;;;;;7.25;6.60;;;12.40;99.90;;;;;;4956998;29;20020;-81
2022/11/15 08:42:20;;;;;;;1.83;1.73;;;12.80;99.90;;;;;;4928315;29;20153;-88
2022/11/15 08:44:46;;;;;;;3.13;3.03;;;12.90;99.90;;;;;;4924097;29;20148;-81
2022/11/15 08:47:13;;;;;;;7.57;7.18;;;13.20;99.90;;;;;;4924311;29;20024;-83
2022/11/15 08:49:39;;;;;;;4.78;4.57;;;12.60;99.90;;;;;;4923668;29;20028;-81
2022/11/15 08:52:05;;;;;;;6.30;5.78;;;13.70;99.90;;;;;;4923239;29;20042;-79
2022/11/15 08:54:38;;;;;;;4.03;3.83;;;13.70;99.90;;;;;;4923235;29;20023;-81
2022/11/15 09:00:35;;;;;;;12.45;11.48;;;15.40;99.90;;;;;;4883165;29;19942;-81
2022/11/15 09:19:11;;;;;;;2.10;2.00;;;14.00;99.90;;;;;;5303624;24;20058;-84
2022/11/15 09:24:12;;;;;;;14.50;6.50;;;;;;;;;;4797454;24;20054;-82
2022/11/15 09:29:09;;;;;;;4.40;4.10;;;;;;;;;;4802265;29;20048;-76
2022/11/15 09:31:35;;;;;;;3.90;3.70;;;;;;;;;;4845090;24;20036;-77
2022/11/15 09:34:35;;;;;;;3.83;3.53;;;14.60;99.90;;;;;;4767967;30;20087;-93
2022/11/15 09:37:07;;;;;;;2.97;2.78;;;14.70;99.90;;;;;;4750823;24;20063;-77
2022/11/15 09:42:46;;;;;;;4.50;4.20;;;14.70;99.90;;;;;;4956233;24;20137;-92
2022/11/15 09:45:43;;;;;;;6.32;5.90;;;14.80;99.90;;;;;;4764866;30;20043;-82
2022/11/15 09:48:33;;;;;;;4.00;3.80;;;12.50;99.90;;;;;;4784801;24;20089;-92
2022/11/15 09:51:26;;;;;;;3.65;3.45;;;14.30;99.90;;;;;;4784689;30;20038;-90
2022/11/15 09:54:31;;;;;;;0.77;0.77;;;14.20;99.90;;;;;;4794810;30;20031;-79
2022/11/15 09:57:04;;;;;;;0.20;0.20;;;14.90;99.90;;;;;;4792218;29;20035;-77
2022/11/15 09:59:49;;;;;;;2.45;2.35;;;14.00;99.90;;;;;;4779954;30;20051;-78
2022/11/15 10:02:40;;;;;;;9.40;8.77;;;13.70;99.90;;;;;;4787414;30;20109;-80
2022/11/15 10:05:12;;;;;;;1.92;1.83;;;13.70;99.90;;;;;;4787059;29;20085;-91
2022/11/15 10:08:06;;;;;;;1.15;1.15;;;13.70;99.90;;;;;;4797358;30;20030;-87
2022/11/15 10:10:52;;;;;;;16.80;15.60;;;13.70;99.90;;;;;;4795956;30;20043;-91
2022/11/15 10:13:45;;;;;;;3.33;3.15;;;13.70;99.90;;;;;;4793473;30;20109;-83
2022/11/15 10:16:31;;;;;;;9.52;8.88;;;13.40;99.90;;;;;;4795189;30;20039;-79
2022/11/15 10:19:27;;;;;;;2.60;2.30;;;13.70;99.90;;;;;;4794282;30;20612;-86
2022/11/15 10:22:33;;;;;;;2.85;2.75;;;13.80;99.90;;;;;;4791442;30;20071;-80
2022/11/15 10:25:28;;;;;;;1.70;1.65;;;13.70;99.90;;;;;;4792444;30;20164;-77
2022/11/15 10:28:34;;;;;;;5.47;5.20;;;13.80;99.90;;;;;;4793918;30;20050;-81
2022/11/15 10:31:39;;;;;;;4.55;4.15;;;13.70;99.90;;;;;;4774989;30;20732;-78
2022/11/15 10:34:24;;;;;;;12.43;11.45;;;14.60;99.90;;;;;;4778599;30;20027;-81
2022/11/15 10:37:01;;;;;;;2.53;2.42;;;14.00;99.90;;;;;;4794840;30;20023;-92
2022/11/15 10:39:32;;;;;;;4.60;4.30;;;14.00;99.90;;;;;;4779273;30;20490;-86
2022/11/15 10:42:26;;;;;;;3.78;3.58;;;14.20;99.90;;;;;;4797586;30;20577;-81
2022/11/15 10:44:58;;;;;;;4.65;4.35;;;14.30;99.90;;;;;;4794869;30;20027;-80
2022/11/15 10:47:27;;;;;;;9.00;7.55;;;14.40;99.90;;;;;;4797284;30;20027;-78
2022/11/15 10:50:05;;;;;;;4.28;4.00;;;14.50;99.90;;;;;;4793317;30;20028;-77
2022/11/15 10:52:34;;;;;;;4.95;4.57;;;14.60;99.90;;;;;;4780542;30;20046;-75
2022/11/15 10:55:28;;;;;;;3.63;3.33;;;14.80;99.90;;;;;;4795971;30;20309;-80
2022/11/15 10:58:01;;;;;;;3.33;3.13;;;16.00;99.90;;;;;;4794615;29;20114;-76
2022/11/15 11:00:36;;;;;;;1.33;1.30;;;15.00;99.90;;;;;;4779089;30;20063;-78
2022/11/15 11:03:06;;;;;;;2.17;1.88;;;15.10;99.90;;;;;;4780229;30;20523;-79
2022/11/15 11:05:40;;;;;;;1.98;1.88;;;15.20;99.90;;;;;;4798355;30;20398;-76
2022/11/15 11:08:18;;;;;;;1.17;1.17;;;15.30;99.90;;;;;;4797112;30;20080;-80
2022/11/15 11:10:57;;;;;;;0.35;0.35;;;15.30;99.90;;;;;;4790061;30;20101;-90
2022/11/15 11:13:43;;;;;;;0.35;0.35;;;15.30;99.90;;;;;;4782877;30;20043;-85
2022/11/15 11:16:14;;;;;;;3.47;3.33;;;15.30;99.90;;;;;;4801715;29;20050;-82
2022/11/15 11:18:46;;;;;;;2.83;2.70;;;15.40;99.90;;;;;;4804734;30;20031;-92
2022/11/15 11:21:22;;;;;;;0.10;0.10;;;15.40;99.90;;;;;;4802659;30;20031;-77
2022/11/15 11:24:17;;;;;;;0.43;0.43;;;15.70;99.90;;;;;;4804059;30;20058;-81
2022/11/15 11:26:45;;;;;;;0.63;0.63;;;16.00;99.90;;;;;;4806160;29;20091;-79
2022/11/15 12:13:43;;;;;;;1.50;1.40;;;15.50;99.90;;;;;;5057358;27;20399;-76
2022/11/15 12:16:22;;;;;;;1.17;1.10;;;15.60;99.90;;;;;;5056658;28;20036;-78
2022/11/15 12:18:54;;;;;;;2.67;2.38;;;17.20;99.90;;;;;;5056444;28;20028;-76
2022/11/15 12:21:35;;;;;;;0.80;0.80;;;15.60;99.90;;;;;;5063428;28;20029;-78
2022/11/15 12:24:06;;;;;;;2.03;1.92;;;15.70;99.90;;;;;;5055489;28;20340;-78
2022/11/15 12:26:41;;;;;;;0.17;0.17;;;15.80;99.90;;;;;;5056223;28;20017;-74
2022/11/15 12:29:15;;;;;;;0.50;0.50;;;14.90;99.90;;;;;;5053690;28;20391;-74
2022/11/15 12:31:45;;;;;;;7.82;7.03;;;16.00;99.90;;;;;;5055806;28;20021;-76
2022/11/15 12:34:26;;;;;;;0.10;0.10;;;16.20;99.90;;;;;;5054985;28;20698;-80
2022/11/15 12:36:52;;;;;;;0.20;0.20;;;16.30;99.90;;;;;;5056547;28;20102;-78
2022/11/15 12:40:10;;;;;;;0.13;0.13;;;16.60;99.90;;;;;;5054998;28;20651;-78
2022/11/15 12:42:40;;;;;;;0.10;0.10;;;17.00;99.90;;;;;;5035384;28;20121;-77
2022/11/15 12:45:26;;;;;;;0.50;0.50;;;17.40;99.90;;;;;;5035424;28;20029;-77
2022/11/15 12:47:51;;;;;;;0.10;0.10;;;17.80;99.90;;;;;;5027342;28;20144;-78
2022/11/15 12:50:55;;;;;;;0.10;0.10;;;18.00;99.90;;;;;;5042862;28;20045;-91
2022/11/15 12:53:27;;;;;;;0.35;0.35;;;18.20;99.90;;;;;;5033417;28;20030;-79
2022/11/15 12:56:17;;;;;;;0.52;0.52;;;21.10;99.90;;;;;;5034867;28;20092;-76
2022/11/15 12:58:54;;;;;;;4.68;4.28;;;18.30;99.70;;;;;;5015599;28;20680;-79
2022/11/15 13:01:33;;;;;;;0.10;0.10;;;18.40;99.40;;;;;;5031640;28;20033;-77
2022/11/15 13:04:26;;;;;;;0.10;0.10;;;18.50;99.30;;;;;;5015040;28;20755;-77
2022/11/15 13:06:56;;;;;;;0.10;0.10;;;18.50;99.00;;;;;;5027685;28;20060;-77
2022/11/15 13:09:37;;;;;;;0.20;0.20;;;18.50;98.50;;;;;;5032358;28;20056;-77
2022/11/15 13:12:26;;;;;;;0.10;0.10;;;18.30;99.10;;;;;;5014916;28;20117;-76
2022/11/15 13:14:57;;;;;;;0.10;0.10;;;18.20;98.10;;;;;;5002117;28;20597;-78
2022/11/15 13:17:25;;;;;;;0.10;0.10;;;18.00;98.40;;;;;;5007164;28;20060;-77
2022/11/15 13:20:14;;;;;;;0.10;0.10;;;18.00;98.50;;;;;;5045327;28;20096;-77
2022/11/15 13:22:58;;;;;;;0.10;0.10;;;17.80;98.70;;;;;;5047297;28;20048;-86
2022/11/15 13:25:33;;;;;;;0.40;0.40;;;17.70;98.50;;;;;;5046352;28;20016;-79
2022/11/15 13:28:00;;;;;;;0.15;0.15;;;17.50;99.00;;;;;;5045454;28;20041;-75
2022/11/15 13:30:28;;;;;;;0.82;0.82;;;17.40;99.50;;;;;;5044177;28;20021;-77
2022/11/15 13:32:57;;;;;;;2.30;2.20;;;17.30;99.30;;;;;;5042761;28;20009;-77
2022/11/15 13:35:26;;;;;;;0.25;0.25;;;17.20;99.60;;;;;;5042288;28;20028;-77
2022/11/15 13:38:13;;;;;;;;;;;;;;;;;;;;;
2022/11/15 13:40:39;;;;;;;0.20;0.20;;;15.30;99.90;;;;;;5040870;28;20047;-84
2022/11/15 13:43:23;;;;;;;0.32;0.32;;;16.90;99.90;;;;;;5040809;28;20431;-85
2022/11/15 13:46:08;;;;;;;0.20;0.20;;;16.70;99.90;;;;;;5040730;28;20071;-85
2022/11/15 13:48:35;;;;;;;1.45;1.35;;;16.70;99.90;;;;;;5040258;28;20025;-80
2022/11/15 13:51:06;;;;;;;1.63;1.52;;;19.40;99.90;;;;;;5040408;28;20033;-78
2022/11/15 14:14:09;;;;;;;0.20;0.20;;;16.20;99.90;;;;;;5057631;28;20549;-90
2022/11/15 14:16:55;;;;;;;0.22;0.22;;;16.10;99.90;;;;;;5059157;28;20427;-78
2022/11/15 14:19:24;;;;;;;0.10;0.10;;;16.10;99.90;;;;;;5065192;28;20012;-79
2022/11/15 14:22:15;;;;;;;0.30;0.30;;;16.00;99.90;;;;;;5060802;28;20029;-77
2022/11/15 14:24:45;;;;;;;0.25;0.25;;;16.00;99.90;;;;;;5058391;28;20021;-76
2022/11/15 14:27:29;;;;;;;2.30;2.17;;;16.00;99.90;;;;;;5059015;28;20017;-77
2022/11/15 14:29:55;;;;;;;0.32;0.32;;;13.60;99.90;;;;;;5058890;28;20024;-77
2022/11/15 14:32:26;;;;;;;0.63;0.63;;;15.80;99.90;;;;;;5062386;28;20055;-77
2022/11/15 14:34:59;;;;;;;0.50;0.50;;;15.70;99.90;;;;;;5060633;28;20029;-76
2022/11/15 14:37:32;;;;;;;;;;;16.40;99.90;;;;;;5060544;28;20082;-79
2022/11/15 14:40:03;;;;;;;0.43;0.43;;;16.30;99.90;;;;;;5059930;28;19904;-76
2022/11/15 14:42:28;;;;;;;0.10;0.10;;;18.00;99.90;;;;;;5060002;28;20441;-77
2022/11/15 14:44:54;;;;;;;2.28;2.17;;;13.50;99.90;;;;;;5059274;28;20023;-82
2022/11/15 14:47:20;;;;;;;0.65;0.65;;;15.40;99.90;;;;;;5058876;28;20021;-76
2022/11/15 14:49:47;;;;;;;0.85;0.85;;;15.30;99.90;;;;;;5061267;28;20021;-77
2022/11/15 14:52:34;;;;;;;0.47;0.47;;;15.20;99.90;;;;;;5060549;28;20090;-76
2022/11/15 14:55:02;;;;;;;0.20;0.20;;;15.10;99.90;;;;;;5061309;28;20035;-76
2022/11/15 14:57:29;;;;;;;0.30;0.30;;;15.00;99.90;;;;;;5059802;28;20029;-79
2022/11/15 14:59:54;;;;;;;0.50;0.47;;;15.00;99.90;;;;;;5059138;28;20025;-78
2022/11/15 15:02:25;;;;;;;0.70;0.68;;;14.90;99.90;;;;;;5058894;28;20117;-75
2022/11/15 15:04:51;;;;;;;3.60;3.30;;;14.70;99.90;;;;;;5058707;28;20738;-77
2022/11/15 15:07:17;;;;;;;0.82;0.82;;;14.70;99.90;;;;;;5058862;28;20584;-76
2022/11/15 15:09:44;;;;;;;1.45;1.38;;;14.60;99.90;;;;;;5058547;28;20020;-80
2022/11/15 15:12:21;;;;;;;1.95;1.85;;;14.50;99.90;;;;;;5058476;28;20756;-76
2022/11/15 15:14:49;;;;;;;4.18;3.85;;;14.40;99.90;;;;;;5059294;28;20039;-77
2022/11/15 15:17:16;;;;;;;1.55;1.48;;;14.30;99.90;;;;;;5058701;28;20021;-75
2022/11/15 15:19:42;;;;;;;1.38;1.27;;;14.20;99.90;;;;;;5058219;28;20186;-76
2022/11/15 15:22:16;;;;;;;2.20;2.03;;;14.20;99.90;;;;;;5057090;28;20032;-80
2022/11/15 15:24:43;;;;;;;3.60;3.40;;;14.20;99.90;;;;;;5058843;28;20104;-79
2022/11/15 15:27:17;;;;;;;10.80;5.43;;;12.20;99.90;;;;;;5059962;28;20596;-79
2022/11/15 15:29:43;;;;;;;0.77;0.77;;;14.00;99.90;;;;;;5058736;28;20016;-82
2022/11/15 15:32:10;;;;;;;6.65;6.10;;;13.90;99.90;;;;;;5059732;28;20024;-78
2022/11/15 15:34:36;;;;;;;3.22;3.05;;;13.80;99.90;;;;;;5060730;28;20055;-78
2022/11/15 15:37:08;;;;;;;3.63;3.35;;;13.70;99.90;;;;;;5058818;28;20063;-77
2022/11/15 15:39:34;;;;;;;4.47;4.20;;;13.60;99.90;;;;;;5061064;28;20021;-76
2022/11/15 15:42:00;;;;;;;7.70;7.05;;;14.80;99.90;;;;;;5058546;28;20028;-78
2022/11/15 15:44:25;;;;;;;12.30;11.30;;;13.30;99.90;;;;;;5058334;28;20067;-88
2022/11/15 15:46:52;;;;;;;4.88;4.57;;;;;;;;;;5057234;28;20037;-77
2022/11/15 15:49:18;;;;;;;3.28;3.15;;;13.20;99.90;;;;;;5058161;28;20024;-77
2022/11/15 15:51:43;;;;;;;5.60;5.30;;;13.00;99.90;;;;;;5057396;28;20157;-76
2022/11/15 15:54:09;;;;;;;6.00;5.65;;;13.00;99.90;;;;;;5060795;28;20074;-80
2022/11/15 15:56:35;;;;;;;2.25;2.15;;;12.80;99.90;;;;;;5058554;28;20032;-77
2022/11/15 15:59:02;;;;;;;0.10;0.10;;;12.80;99.90;;;;;;5058747;28;20639;-79
2022/11/15 16:01:28;;;;;;;4.18;3.95;;;12.70;99.90;;;;;;5057521;28;20047;-76
2022/11/15 16:03:53;;;;;;;3.97;3.38;;;12.50;99.90;;;;;;5058069;28;20017;-76
2022/11/15 16:06:40;;;;;;;0.10;0.10;;;12.50;99.90;;;;;;5058093;28;20138;-78
2022/11/15 16:09:10;;;;;;;0.82;0.82;;;12.50;99.90;;;;;;5057851;28;20029;-80
2022/11/15 16:11:36;;;;;;;4.13;3.92;;;12.40;99.90;;;;;;5059953;28;20551;-76
2022/11/15 16:14:02;;;;;;;0.20;0.20;;;12.00;99.90;;;;;;5059269;28;20177;-77
2022/11/15 16:16:28;;;;;;;5.60;5.15;;;12.30;99.90;;;;;;5059600;28;20029;-77
2022/11/15 16:18:54;;;;;;;5.32;4.88;;;12.20;99.90;;;;;;5060120;28;20025;-78
2022/11/15 16:21:20;;;;;;;1.63;1.58;;;12.20;99.90;;;;;;5058388;28;20036;-76
2022/11/15 16:23:48;;;;;;;13.95;13.05;;;12.10;99.90;;;;;;5059991;28;20025;-76
2022/11/15 16:26:25;;;;;;;1.00;1.00;;;12.00;99.90;;;;;;5063089;28;20092;-76
2022/11/15 16:28:52;;;;;;;0.90;0.90;;;12.00;99.90;;;;;;5061083;28;20025;-76
2022/11/15 16:31:20;;;;;;;0.55;0.55;;;11.90;99.90;;;;;;5064309;28;20608;-80
2022/11/15 16:33:46;;;;;;;0.60;0.60;;;11.70;99.90;;;;;;5064355;28;20113;-76
2022/11/15 16:36:23;;;;;;;9.38;8.38;;;11.70;99.90;;;;;;5059916;28;20103;-75
2022/11/15 16:38:49;;;;;;;0.20;0.20;;;11.60;99.90;;;;;;5061474;28;20020;-75
2022/11/15 16:41:17;;;;;;;7.45;6.32;;;11.60;99.90;;;;;;5060760;28;20039;-76
2022/11/15 16:43:45;;;;;;;0.65;0.65;;;11.50;99.90;;;;;;5049022;28;20036;-75
2022/11/15 16:46:21;;;;;;;2.25;2.15;;;11.50;99.90;;;;;;5064431;28;20009;-77
2022/11/15 16:48:48;;;;;;;1.23;1.23;;;11.50;99.90;;;;;;5063369;28;20047;-74
2022/11/15 16:51:14;;;;;;;2.63;2.53;;;11.40;99.90;;;;;;5066523;28;20673;-75
2022/11/15 16:53:42;;;;;;;3.58;3.38;;;11.30;99.90;;;;;;5066509;28;20024;-75
2022/11/15 16:56:20;;;;;;;4.15;3.92;;;9.30;99.90;;;;;;5064641;28;20054;-75
2022/11/15 16:58:46;;;;;;;0.65;0.65;;;11.20;99.90;;;;;;5070567;28;20077;-75
2022/11/15 17:01:34;;;;;;;13.80;10.48;;;11.20;99.90;;;;;;5064813;28;20024;-74
2022/11/15 17:04:22;;;;;;;0.60;0.60;;;11.10;99.90;;;;;;5066078;28;20616;-77
2022/11/15 17:06:47;;;;;;;0.20;0.20;;;11.10;99.90;;;;;;5064955;28;20701;-75
2022/11/15 17:09:25;;;;;;;1.10;1.10;;;11.10;99.90;;;;;;5066278;28;20032;-75
2022/11/15 17:11:51;;;;;;;2.47;2.30;;;11.00;99.90;;;;;;5064661;28;20106;-76
2022/11/15 17:14:17;;;;;;;16.17;15.20;;;10.90;99.90;;;;;;5062507;28;20033;-77
2022/11/15 17:16:43;;;;;;;5.63;5.38;;;11.20;99.90;;;;;;5063328;28;20056;-75
2022/11/15 17:19:20;;;;;;;3.97;3.78;;;10.80;99.90;;;;;;5065169;28;20562;-77
2022/11/15 17:21:48;;;;;;;2.45;2.30;;;10.70;99.90;;;;;;5064018;28;20028;-75
2022/11/15 17:24:19;;;;;;;4.65;4.45;;;10.70;99.90;;;;;;5061971;28;20346;-74
2022/11/15 17:26:45;;;;;;;0.40;0.40;;;10.60;99.90;;;;;;5065952;28;20055;-76